sensor_id;sensor_type;location;lat;lon;timestamp;P1;durP1;ratioP1;P2;durP2;ratioP2
41633;SDS011;37274;51.150;4.808;2022-07-10T00:00:12;1.13;;;0.35;;
41633;SDS011;37274;51.150;4.808;2022-07-10T00:02:40;1.20;;;0.30;;
41633;SDS011;37274;51.150;4.808;2022-07-10T00:05:08;2.80;;;0.50;;
41633;SDS011;37274;51.150;4.808;2022-07-10T00:07:42;0.90;;;0.32;;
41633;SDS011;37274;51.150;4.808;2022-07-10T00:10:09;1.77;;;0.30;;
41633;SDS011;37274;51.150;4.808;2022-07-10T00:12:37;0.63;;;0.43;;
41633;SDS011;37274;51.150;4.808;2022-07-10T00:15:04;0.93;;;0.20;;
41633;SDS011;37274;51.150;4.808;2022-07-10T00:17:31;1.85;;;0.40;;
41633;SDS011;37274;51.150;4.808;2022-07-10T00:19:59;0.90;;;0.30;;
41633;SDS011;37274;51.150;4.808;2022-07-10T00:22:26;0.40;;;0.20;;
41633;SDS011;37274;51.150;4.808;2022-07-10T00:24:53;0.43;;;0.20;;
41633;SDS011;37274;51.150;4.808;2022-07-10T00:27:19;7.53;;;1.35;;
41633;SDS011;37274;51.150;4.808;2022-07-10T00:29:46;1.70;;;0.55;;
41633;SDS011;37274;51.150;4.808;2022-07-10T00:32:13;1.02;;;0.30;;
41633;SDS011;37274;51.150;4.808;2022-07-10T00:34:40;0.60;;;0.15;;
41633;SDS011;37274;51.150;4.808;2022-07-10T00:37:07;0.32;;;0.30;;
41633;SDS011;37274;51.150;4.808;2022-07-10T00:39:33;0.65;;;0.35;;
41633;SDS011;37274;51.150;4.808;2022-07-10T00:42:07;1.00;;;0.38;;
41633;SDS011;37274;51.150;4.808;2022-07-10T00:44:35;0.30;;;0.20;;
41633;SDS011;37274;51.150;4.808;2022-07-10T00:47:03;1.02;;;0.40;;
41633;SDS011;37274;51.150;4.808;2022-07-10T00:49:31;0.93;;;0.35;;
41633;SDS011;37274;51.150;4.808;2022-07-10T00:51:59;0.60;;;0.30;;
41633;SDS011;37274;51.150;4.808;2022-07-10T00:54:28;0.57;;;0.30;;
41633;SDS011;37274;51.150;4.808;2022-07-10T00:56:55;0.52;;;0.30;;
41633;SDS011;37274;51.150;4.808;2022-07-10T00:59:23;0.25;;;0.20;;
41633;SDS011;37274;51.150;4.808;2022-07-10T01:01:50;0.52;;;0.30;;
41633;SDS011;37274;51.150;4.808;2022-07-10T01:04:17;0.50;;;0.32;;
41633;SDS011;37274;51.150;4.808;2022-07-10T01:06:44;0.88;;;0.30;;
41633;SDS011;37274;51.150;4.808;2022-07-10T01:09:11;0.70;;;0.38;;
41633;SDS011;37274;51.150;4.808;2022-07-10T01:11:38;2.28;;;0.40;;
41633;SDS011;37274;51.150;4.808;2022-07-10T01:14:05;0.98;;;0.50;;
41633;SDS011;37274;51.150;4.808;2022-07-10T01:16:31;2.60;;;0.50;;
41633;SDS011;37274;51.150;4.808;2022-07-10T01:18:58;0.68;;;0.20;;
41633;SDS011;37274;51.150;4.808;2022-07-10T01:23:55;0.77;;;0.38;;
41633;SDS011;37274;51.150;4.808;2022-07-10T01:26:22;0.75;;;0.40;;
41633;SDS011;37274;51.150;4.808;2022-07-10T01:28:53;0.20;;;0.20;;
41633;SDS011;37274;51.150;4.808;2022-07-10T01:31:24;0.80;;;0.30;;
41633;SDS011;37274;51.150;4.808;2022-07-10T01:33:53;1.17;;;0.50;;
41633;SDS011;37274;51.150;4.808;2022-07-10T01:36:23;1.02;;;0.40;;
41633;SDS011;37274;51.150;4.808;2022-07-10T01:38:53;2.58;;;0.43;;
41633;SDS011;37274;51.150;4.808;2022-07-10T01:41:20;2.47;;;0.30;;
41633;SDS011;37274;51.150;4.808;2022-07-10T01:43:47;1.63;;;0.22;;
41633;SDS011;37274;51.150;4.808;2022-07-10T01:46:14;0.40;;;0.30;;
41633;SDS011;37274;51.150;4.808;2022-07-10T01:48:42;0.30;;;0.30;;
41633;SDS011;37274;51.150;4.808;2022-07-10T01:51:09;0.93;;;0.20;;
41633;SDS011;37274;51.150;4.808;2022-07-10T01:53:37;0.55;;;0.35;;
41633;SDS011;37274;51.150;4.808;2022-07-10T01:56:08;0.30;;;0.30;;
41633;SDS011;37274;51.150;4.808;2022-07-10T01:58:35;1.40;;;0.40;;
41633;SDS011;37274;51.150;4.808;2022-07-10T02:01:03;1.05;;;0.40;;
41633;SDS011;37274;51.150;4.808;2022-07-10T02:03:31;1.30;;;0.50;;
41633;SDS011;37274;51.150;4.808;2022-07-10T02:06:16;0.28;;;0.28;;
41633;SDS011;37274;51.150;4.808;2022-07-10T02:08:43;1.25;;;0.60;;
41633;SDS011;37274;51.150;4.808;2022-07-10T02:11:10;1.15;;;0.50;;
41633;SDS011;37274;51.150;4.808;2022-07-10T02:13:38;0.35;;;0.35;;
41633;SDS011;37274;51.150;4.808;2022-07-10T02:16:05;0.25;;;0.25;;
41633;SDS011;37274;51.150;4.808;2022-07-10T02:18:33;1.77;;;0.40;;
41633;SDS011;37274;51.150;4.808;2022-07-10T02:21:00;0.47;;;0.20;;
41633;SDS011;37274;51.150;4.808;2022-07-10T02:23:26;0.38;;;0.20;;
41633;SDS011;37274;51.150;4.808;2022-07-10T02:25:54;1.48;;;0.45;;
41633;SDS011;37274;51.150;4.808;2022-07-10T02:28:21;1.73;;;0.50;;
41633;SDS011;37274;51.150;4.808;2022-07-10T02:30:48;1.20;;;0.32;;
41633;SDS011;37274;51.150;4.808;2022-07-10T02:33:14;1.70;;;0.40;;
41633;SDS011;37274;51.150;4.808;2022-07-10T02:35:41;0.40;;;0.20;;
41633;SDS011;37274;51.150;4.808;2022-07-10T02:38:08;1.13;;;0.40;;
41633;SDS011;37274;51.150;4.808;2022-07-10T02:40:35;0.70;;;0.40;;
41633;SDS011;37274;51.150;4.808;2022-07-10T02:43:01;0.77;;;0.30;;
41633;SDS011;37274;51.150;4.808;2022-07-10T02:45:28;1.23;;;0.35;;
41633;SDS011;37274;51.150;4.808;2022-07-10T02:47:55;1.40;;;0.30;;
41633;SDS011;37274;51.150;4.808;2022-07-10T02:50:22;3.10;;;0.82;;
41633;SDS011;37274;51.150;4.808;2022-07-10T02:52:49;1.42;;;0.40;;
41633;SDS011;37274;51.150;4.808;2022-07-10T02:55:15;2.25;;;0.60;;
41633;SDS011;37274;51.150;4.808;2022-07-10T02:57:42;1.88;;;0.45;;
41633;SDS011;37274;51.150;4.808;2022-07-10T03:00:09;0.68;;;0.30;;
41633;SDS011;37274;51.150;4.808;2022-07-10T03:02:37;1.58;;;0.35;;
41633;SDS011;37274;51.150;4.808;2022-07-10T03:05:05;0.35;;;0.30;;
41633;SDS011;37274;51.150;4.808;2022-07-10T03:07:32;1.02;;;0.50;;
41633;SDS011;37274;51.150;4.808;2022-07-10T03:09:58;2.22;;;0.45;;
41633;SDS011;37274;51.150;4.808;2022-07-10T03:12:25;0.40;;;0.32;;
41633;SDS011;37274;51.150;4.808;2022-07-10T03:14:52;0.80;;;0.52;;
41633;SDS011;37274;51.150;4.808;2022-07-10T03:17:19;3.70;;;0.50;;
41633;SDS011;37274;51.150;4.808;2022-07-10T03:19:45;0.73;;;0.45;;
41633;SDS011;37274;51.150;4.808;2022-07-10T03:22:12;0.40;;;0.40;;
41633;SDS011;37274;51.150;4.808;2022-07-10T03:24:39;0.40;;;0.40;;
41633;SDS011;37274;51.150;4.808;2022-07-10T03:27:06;0.50;;;0.50;;
41633;SDS011;37274;51.150;4.808;2022-07-10T03:29:32;1.25;;;0.73;;
41633;SDS011;37274;51.150;4.808;2022-07-10T03:31:59;2.47;;;0.50;;
41633;SDS011;37274;51.150;4.808;2022-07-10T03:34:26;1.65;;;0.80;;
41633;SDS011;37274;51.150;4.808;2022-07-10T03:36:52;1.67;;;0.35;;
41633;SDS011;37274;51.150;4.808;2022-07-10T03:39:19;0.70;;;0.50;;
41633;SDS011;37274;51.150;4.808;2022-07-10T03:41:46;0.80;;;0.60;;
41633;SDS011;37274;51.150;4.808;2022-07-10T03:44:13;1.15;;;0.65;;
41633;SDS011;37274;51.150;4.808;2022-07-10T03:46:40;0.65;;;0.50;;
41633;SDS011;37274;51.150;4.808;2022-07-10T03:49:06;1.88;;;0.70;;
41633;SDS011;37274;51.150;4.808;2022-07-10T03:51:33;0.93;;;0.50;;
41633;SDS011;37274;51.150;4.808;2022-07-10T03:54:00;2.90;;;0.70;;
41633;SDS011;37274;51.150;4.808;2022-07-10T03:56:27;0.65;;;0.43;;
41633;SDS011;37274;51.150;4.808;2022-07-10T03:59:12;1.40;;;0.70;;
41633;SDS011;37274;51.150;4.808;2022-07-10T04:01:39;2.50;;;0.80;;
41633;SDS011;37274;51.150;4.808;2022-07-10T04:04:05;1.50;;;0.70;;
41633;SDS011;37274;51.150;4.808;2022-07-10T04:06:32;0.80;;;0.70;;
41633;SDS011;37274;51.150;4.808;2022-07-10T04:08:59;1.00;;;0.75;;
41633;SDS011;37274;51.150;4.808;2022-07-10T04:11:26;1.42;;;0.55;;
41633;SDS011;37274;51.150;4.808;2022-07-10T04:13:53;0.65;;;0.47;;
41633;SDS011;37274;51.150;4.808;2022-07-10T04:16:19;0.82;;;0.50;;
41633;SDS011;37274;51.150;4.808;2022-07-10T04:18:46;0.85;;;0.47;;
41633;SDS011;37274;51.150;4.808;2022-07-10T04:21:13;2.17;;;0.50;;
41633;SDS011;37274;51.150;4.808;2022-07-10T04:23:40;0.93;;;0.60;;
41633;SDS011;37274;51.150;4.808;2022-07-10T04:26:07;0.50;;;0.50;;
41633;SDS011;37274;51.150;4.808;2022-07-10T04:28:34;0.85;;;0.50;;
41633;SDS011;37274;51.150;4.808;2022-07-10T04:31:00;1.38;;;0.60;;
41633;SDS011;37274;51.150;4.808;2022-07-10T04:33:27;1.80;;;0.65;;
41633;SDS011;37274;51.150;4.808;2022-07-10T04:35:54;1.63;;;0.50;;
41633;SDS011;37274;51.150;4.808;2022-07-10T04:38:21;0.98;;;0.57;;
41633;SDS011;37274;51.150;4.808;2022-07-10T04:40:47;1.13;;;0.55;;
41633;SDS011;37274;51.150;4.808;2022-07-10T04:43:14;1.50;;;0.50;;
41633;SDS011;37274;51.150;4.808;2022-07-10T04:45:41;0.52;;;0.47;;
41633;SDS011;37274;51.150;4.808;2022-07-10T04:48:08;0.80;;;0.50;;
41633;SDS011;37274;51.150;4.808;2022-07-10T04:50:34;1.08;;;0.52;;
41633;SDS011;37274;51.150;4.808;2022-07-10T04:53:01;2.17;;;0.52;;
41633;SDS011;37274;51.150;4.808;2022-07-10T04:55:28;0.68;;;0.40;;
41633;SDS011;37274;51.150;4.808;2022-07-10T04:57:54;1.08;;;0.60;;
41633;SDS011;37274;51.150;4.808;2022-07-10T05:00:21;0.88;;;0.50;;
41633;SDS011;37274;51.150;4.808;2022-07-10T05:02:48;0.30;;;0.30;;
41633;SDS011;37274;51.150;4.808;2022-07-10T05:05:15;0.68;;;0.50;;
41633;SDS011;37274;51.150;4.808;2022-07-10T05:07:42;0.52;;;0.45;;
41633;SDS011;37274;51.150;4.808;2022-07-10T05:10:09;0.50;;;0.50;;
41633;SDS011;37274;51.150;4.808;2022-07-10T05:12:36;0.88;;;0.50;;
41633;SDS011;37274;51.150;4.808;2022-07-10T05:15:02;1.88;;;0.70;;
41633;SDS011;37274;51.150;4.808;2022-07-10T05:17:30;1.15;;;0.73;;
41633;SDS011;37274;51.150;4.808;2022-07-10T05:19:58;2.95;;;0.57;;
41633;SDS011;37274;51.150;4.808;2022-07-10T05:22:25;2.20;;;0.60;;
41633;SDS011;37274;51.150;4.808;2022-07-10T05:24:52;2.33;;;0.85;;
41633;SDS011;37274;51.150;4.808;2022-07-10T05:27:18;2.30;;;0.90;;
41633;SDS011;37274;51.150;4.808;2022-07-10T05:29:46;1.73;;;0.90;;
41633;SDS011;37274;51.150;4.808;2022-07-10T05:32:13;0.95;;;0.70;;
41633;SDS011;37274;51.150;4.808;2022-07-10T05:34:40;2.67;;;1.05;;
41633;SDS011;37274;51.150;4.808;2022-07-10T05:37:07;2.10;;;0.98;;
41633;SDS011;37274;51.150;4.808;2022-07-10T05:39:34;2.33;;;1.02;;
41633;SDS011;37274;51.150;4.808;2022-07-10T05:42:01;1.38;;;1.27;;
41633;SDS011;37274;51.150;4.808;2022-07-10T05:44:28;1.75;;;0.88;;
41633;SDS011;37274;51.150;4.808;2022-07-10T05:46:55;2.42;;;1.10;;
41633;SDS011;37274;51.150;4.808;2022-07-10T05:49:21;3.17;;;1.15;;
41633;SDS011;37274;51.150;4.808;2022-07-10T05:51:48;3.58;;;1.25;;
41633;SDS011;37274;51.150;4.808;2022-07-10T05:54:15;5.80;;;1.60;;
41633;SDS011;37274;51.150;4.808;2022-07-10T05:56:42;3.35;;;1.30;;
41633;SDS011;37274;51.150;4.808;2022-07-10T05:59:08;2.10;;;1.13;;
41633;SDS011;37274;51.150;4.808;2022-07-10T06:01:35;3.03;;;0.75;;
41633;SDS011;37274;51.150;4.808;2022-07-10T06:04:02;2.60;;;0.80;;
41633;SDS011;37274;51.150;4.808;2022-07-10T06:06:29;4.25;;;0.70;;
41633;SDS011;37274;51.150;4.808;2022-07-10T06:08:56;2.45;;;0.82;;
41633;SDS011;37274;51.150;4.808;2022-07-10T06:11:22;3.50;;;1.17;;
41633;SDS011;37274;51.150;4.808;2022-07-10T06:13:49;3.33;;;0.93;;
41633;SDS011;37274;51.150;4.808;2022-07-10T06:16:17;6.75;;;0.98;;
41633;SDS011;37274;51.150;4.808;2022-07-10T06:18:43;3.38;;;1.00;;
41633;SDS011;37274;51.150;4.808;2022-07-10T06:21:11;3.63;;;1.58;;
41633;SDS011;37274;51.150;4.808;2022-07-10T06:23:38;2.65;;;0.90;;
41633;SDS011;37274;51.150;4.808;2022-07-10T06:26:04;2.28;;;1.00;;
41633;SDS011;37274;51.150;4.808;2022-07-10T06:28:33;2.38;;;0.80;;
41633;SDS011;37274;51.150;4.808;2022-07-10T06:31:01;3.08;;;0.70;;
41633;SDS011;37274;51.150;4.808;2022-07-10T06:33:28;5.03;;;1.40;;
41633;SDS011;37274;51.150;4.808;2022-07-10T06:35:55;3.47;;;1.27;;
41633;SDS011;37274;51.150;4.808;2022-07-10T06:38:21;1.85;;;0.70;;
41633;SDS011;37274;51.150;4.808;2022-07-10T06:40:48;2.53;;;0.70;;
41633;SDS011;37274;51.150;4.808;2022-07-10T06:43:16;1.92;;;0.70;;
41633;SDS011;37274;51.150;4.808;2022-07-10T06:45:43;0.73;;;0.57;;
41633;SDS011;37274;51.150;4.808;2022-07-10T06:48:10;4.15;;;0.90;;
41633;SDS011;37274;51.150;4.808;2022-07-10T06:50:37;2.28;;;0.73;;
41633;SDS011;37274;51.150;4.808;2022-07-10T06:53:04;2.25;;;0.70;;
41633;SDS011;37274;51.150;4.808;2022-07-10T06:55:32;3.08;;;1.08;;
41633;SDS011;37274;51.150;4.808;2022-07-10T06:57:59;3.58;;;0.80;;
41633;SDS011;37274;51.150;4.808;2022-07-10T07:00:26;2.10;;;0.82;;
41633;SDS011;37274;51.150;4.808;2022-07-10T07:02:53;1.48;;;0.55;;
41633;SDS011;37274;51.150;4.808;2022-07-10T07:05:20;2.75;;;1.00;;
41633;SDS011;37274;51.150;4.808;2022-07-10T07:07:47;3.65;;;0.73;;
41633;SDS011;37274;51.150;4.808;2022-07-10T07:10:14;5.93;;;1.85;;
41633;SDS011;37274;51.150;4.808;2022-07-10T07:12:41;3.53;;;0.70;;
41633;SDS011;37274;51.150;4.808;2022-07-10T07:15:08;4.15;;;1.10;;
41633;SDS011;37274;51.150;4.808;2022-07-10T07:17:41;3.08;;;0.63;;
41633;SDS011;37274;51.150;4.808;2022-07-10T07:20:26;5.97;;;1.00;;
41633;SDS011;37274;51.150;4.808;2022-07-10T07:23:11;2.47;;;0.73;;
41633;SDS011;37274;51.150;4.808;2022-07-10T07:25:39;4.53;;;1.00;;
41633;SDS011;37274;51.150;4.808;2022-07-10T07:28:08;4.22;;;0.47;;
41633;SDS011;37274;51.150;4.808;2022-07-10T07:30:36;1.25;;;0.60;;
41633;SDS011;37274;51.150;4.808;2022-07-10T07:33:03;2.28;;;0.60;;
41633;SDS011;37274;51.150;4.808;2022-07-10T07:35:30;3.38;;;0.80;;
41633;SDS011;37274;51.150;4.808;2022-07-10T07:37:57;2.88;;;0.90;;
41633;SDS011;37274;51.150;4.808;2022-07-10T07:40:24;2.15;;;0.65;;
41633;SDS011;37274;51.150;4.808;2022-07-10T07:42:54;1.98;;;0.80;;
41633;SDS011;37274;51.150;4.808;2022-07-10T07:45:22;3.45;;;1.08;;
41633;SDS011;37274;51.150;4.808;2022-07-10T07:47:50;5.75;;;0.82;;
41633;SDS011;37274;51.150;4.808;2022-07-10T07:50:19;3.47;;;0.43;;
41633;SDS011;37274;51.150;4.808;2022-07-10T07:52:48;4.50;;;0.73;;
41633;SDS011;37274;51.150;4.808;2022-07-10T07:55:16;4.75;;;0.63;;
41633;SDS011;37274;51.150;4.808;2022-07-10T07:57:44;5.28;;;1.00;;
41633;SDS011;37274;51.150;4.808;2022-07-10T08:00:11;5.15;;;1.35;;
41633;SDS011;37274;51.150;4.808;2022-07-10T08:02:39;3.97;;;0.68;;
41633;SDS011;37274;51.150;4.808;2022-07-10T08:05:06;6.78;;;0.73;;
41633;SDS011;37274;51.150;4.808;2022-07-10T08:07:44;2.13;;;0.55;;
41633;SDS011;37274;51.150;4.808;2022-07-10T08:10:12;4.00;;;0.77;;
41633;SDS011;37274;51.150;4.808;2022-07-10T08:12:40;1.25;;;0.40;;
41633;SDS011;37274;51.150;4.808;2022-07-10T08:15:08;1.48;;;0.63;;
41633;SDS011;37274;51.150;4.808;2022-07-10T08:17:37;2.45;;;0.75;;
41633;SDS011;37274;51.150;4.808;2022-07-10T08:20:04;3.08;;;0.73;;
41633;SDS011;37274;51.150;4.808;2022-07-10T08:22:32;2.30;;;0.60;;
41633;SDS011;37274;51.150;4.808;2022-07-10T08:24:59;9.95;;;1.55;;
41633;SDS011;37274;51.150;4.808;2022-07-10T08:27:26;4.38;;;0.90;;
41633;SDS011;37274;51.150;4.808;2022-07-10T08:29:53;2.97;;;1.20;;
41633;SDS011;37274;51.150;4.808;2022-07-10T08:32:20;3.28;;;0.80;;
41633;SDS011;37274;51.150;4.808;2022-07-10T08:34:47;2.35;;;0.60;;
41633;SDS011;37274;51.150;4.808;2022-07-10T08:37:15;1.35;;;0.60;;
41633;SDS011;37274;51.150;4.808;2022-07-10T08:39:42;2.60;;;0.70;;
41633;SDS011;37274;51.150;4.808;2022-07-10T08:42:08;2.13;;;0.52;;
41633;SDS011;37274;51.150;4.808;2022-07-10T08:44:36;1.10;;;0.50;;
41633;SDS011;37274;51.150;4.808;2022-07-10T08:47:04;1.83;;;0.85;;
41633;SDS011;37274;51.150;4.808;2022-07-10T08:49:31;2.35;;;0.57;;
41633;SDS011;37274;51.150;4.808;2022-07-10T08:54:33;2.33;;;0.70;;
41633;SDS011;37274;51.150;4.808;2022-07-10T08:57:01;2.03;;;0.65;;
41633;SDS011;37274;51.150;4.808;2022-07-10T08:59:29;3.15;;;0.90;;
41633;SDS011;37274;51.150;4.808;2022-07-10T09:01:57;1.48;;;0.70;;
41633;SDS011;37274;51.150;4.808;2022-07-10T09:04:25;2.17;;;0.70;;
41633;SDS011;37274;51.150;4.808;2022-07-10T09:06:53;2.65;;;0.88;;
41633;SDS011;37274;51.150;4.808;2022-07-10T09:09:21;1.77;;;0.60;;
41633;SDS011;37274;51.150;4.808;2022-07-10T09:11:48;0.82;;;0.63;;
41633;SDS011;37274;51.150;4.808;2022-07-10T09:14:21;2.80;;;0.70;;
41633;SDS011;37274;51.150;4.808;2022-07-10T09:16:59;3.15;;;1.20;;
41633;SDS011;37274;51.150;4.808;2022-07-10T09:19:28;2.92;;;1.05;;
41633;SDS011;37274;51.150;4.808;2022-07-10T09:22:04;4.00;;;1.00;;
41633;SDS011;37274;51.150;4.808;2022-07-10T09:24:36;1.17;;;0.50;;
41633;SDS011;37274;51.150;4.808;2022-07-10T09:27:04;1.55;;;0.55;;
41633;SDS011;37274;51.150;4.808;2022-07-10T09:29:31;2.03;;;0.70;;
41633;SDS011;37274;51.150;4.808;2022-07-10T09:31:59;1.73;;;1.00;;
41633;SDS011;37274;51.150;4.808;2022-07-10T09:34:40;2.03;;;0.95;;
41633;SDS011;37274;51.150;4.808;2022-07-10T09:42:41;1.15;;;0.60;;
41633;SDS011;37274;51.150;4.808;2022-07-10T09:47:46;4.35;;;0.85;;
41633;SDS011;37274;51.150;4.808;2022-07-10T09:50:28;1.15;;;0.60;;
41633;SDS011;37274;51.150;4.808;2022-07-10T09:52:56;2.63;;;0.93;;
41633;SDS011;37274;51.150;4.808;2022-07-10T09:55:25;2.03;;;0.98;;
41633;SDS011;37274;51.150;4.808;2022-07-10T09:58:00;1.27;;;0.70;;
41633;SDS011;37274;51.150;4.808;2022-07-10T10:00:38;2.13;;;1.08;;
41633;SDS011;37274;51.150;4.808;2022-07-10T10:03:08;3.63;;;1.00;;
41633;SDS011;37274;51.150;4.808;2022-07-10T10:05:53;1.55;;;0.70;;
41633;SDS011;37274;51.150;4.808;2022-07-10T10:08:24;1.75;;;0.82;;
41633;SDS011;37274;51.150;4.808;2022-07-10T10:10:52;1.88;;;1.10;;
41633;SDS011;37274;51.150;4.808;2022-07-10T10:13:20;2.55;;;1.08;;
41633;SDS011;37274;51.150;4.808;2022-07-10T10:15:49;4.70;;;1.10;;
41633;SDS011;37274;51.150;4.808;2022-07-10T10:18:24;2.20;;;0.88;;
41633;SDS011;37274;51.150;4.808;2022-07-10T10:20:54;2.40;;;1.05;;
41633;SDS011;37274;51.150;4.808;2022-07-10T10:23:22;2.15;;;0.90;;
41633;SDS011;37274;51.150;4.808;2022-07-10T10:25:55;2.03;;;0.80;;
41633;SDS011;37274;51.150;4.808;2022-07-10T10:28:23;2.00;;;1.15;;
41633;SDS011;37274;51.150;4.808;2022-07-10T10:30:51;3.00;;;1.30;;
41633;SDS011;37274;51.150;4.808;2022-07-10T10:36:06;2.47;;;1.10;;
41633;SDS011;37274;51.150;4.808;2022-07-10T10:46:56;3.45;;;1.05;;
41633;SDS011;37274;51.150;4.808;2022-07-10T10:49:47;1.25;;;0.82;;
41633;SDS011;37274;51.150;4.808;2022-07-10T10:52:17;3.85;;;0.90;;
41633;SDS011;37274;51.150;4.808;2022-07-10T11:00:02;5.72;;;1.20;;
41633;SDS011;37274;51.150;4.808;2022-07-10T11:02:34;3.00;;;1.20;;
41633;SDS011;37274;51.150;4.808;2022-07-10T11:13:21;1.33;;;0.95;;
41633;SDS011;37274;51.150;4.808;2022-07-10T11:15:56;1.45;;;0.70;;
41633;SDS011;37274;51.150;4.808;2022-07-10T11:18:24;1.65;;;0.80;;
41633;SDS011;37274;51.150;4.808;2022-07-10T11:20:55;2.95;;;1.02;;
41633;SDS011;37274;51.150;4.808;2022-07-10T11:26:02;2.17;;;1.15;;
41633;SDS011;37274;51.150;4.808;2022-07-10T11:31:08;1.90;;;0.85;;
41633;SDS011;37274;51.150;4.808;2022-07-10T11:33:39;8.57;;;1.35;;
41633;SDS011;37274;51.150;4.808;2022-07-10T11:36:09;1.98;;;0.75;;
41633;SDS011;37274;51.150;4.808;2022-07-10T11:38:40;2.35;;;1.27;;
41633;SDS011;37274;51.150;4.808;2022-07-10T11:41:15;3.47;;;1.05;;
41633;SDS011;37274;51.150;4.808;2022-07-10T11:43:59;6.30;;;1.00;;
41633;SDS011;37274;51.150;4.808;2022-07-10T11:46:30;2.88;;;1.05;;
41633;SDS011;37274;51.150;4.808;2022-07-10T11:48:58;2.83;;;1.10;;
41633;SDS011;37274;51.150;4.808;2022-07-10T11:56:27;3.70;;;0.77;;
41633;SDS011;37274;51.150;4.808;2022-07-10T11:59:01;1.33;;;0.77;;
41633;SDS011;37274;51.150;4.808;2022-07-10T12:01:33;4.43;;;0.75;;
41633;SDS011;37274;51.150;4.808;2022-07-10T12:04:04;3.25;;;0.77;;
41633;SDS011;37274;51.150;4.808;2022-07-10T12:06:33;2.70;;;0.80;;
41633;SDS011;37274;51.150;4.808;2022-07-10T12:09:04;2.05;;;1.10;;
41633;SDS011;37274;51.150;4.808;2022-07-10T12:11:42;4.32;;;1.00;;
41633;SDS011;37274;51.150;4.808;2022-07-10T12:14:11;3.05;;;1.00;;
41633;SDS011;37274;51.150;4.808;2022-07-10T12:16:41;2.17;;;1.15;;
41633;SDS011;37274;51.150;4.808;2022-07-10T12:19:15;2.90;;;0.85;;
41633;SDS011;37274;51.150;4.808;2022-07-10T12:21:43;1.33;;;1.02;;
41633;SDS011;37274;51.150;4.808;2022-07-10T12:24:12;1.25;;;0.82;;
41633;SDS011;37274;51.150;4.808;2022-07-10T12:26:40;1.45;;;0.57;;
41633;SDS011;37274;51.150;4.808;2022-07-10T12:29:23;1.02;;;0.70;;
41633;SDS011;37274;51.150;4.808;2022-07-10T12:31:52;2.55;;;0.68;;
41633;SDS011;37274;51.150;4.808;2022-07-10T12:37:07;2.13;;;0.80;;
41633;SDS011;37274;51.150;4.808;2022-07-10T12:39:45;1.42;;;0.80;;
41633;SDS011;37274;51.150;4.808;2022-07-10T12:42:13;5.35;;;1.35;;
41633;SDS011;37274;51.150;4.808;2022-07-10T12:44:53;3.80;;;1.25;;
41633;SDS011;37274;51.150;4.808;2022-07-10T12:47:20;3.92;;;0.70;;
41633;SDS011;37274;51.150;4.808;2022-07-10T12:52:22;1.08;;;0.47;;
41633;SDS011;37274;51.150;4.808;2022-07-10T12:57:52;3.63;;;0.70;;
41633;SDS011;37274;51.150;4.808;2022-07-10T13:00:31;0.70;;;0.50;;
41633;SDS011;37274;51.150;4.808;2022-07-10T13:03:01;1.48;;;0.70;;
41633;SDS011;37274;51.150;4.808;2022-07-10T13:10:37;1.98;;;0.95;;
41633;SDS011;37274;51.150;4.808;2022-07-10T13:13:05;1.52;;;0.80;;
41633;SDS011;37274;51.150;4.808;2022-07-10T13:15:33;3.53;;;0.60;;
41633;SDS011;37274;51.150;4.808;2022-07-10T13:18:14;1.40;;;0.70;;
41633;SDS011;37274;51.150;4.808;2022-07-10T13:20:45;1.75;;;0.75;;
41633;SDS011;37274;51.150;4.808;2022-07-10T13:23:12;3.25;;;0.73;;
41633;SDS011;37274;51.150;4.808;2022-07-10T13:25:39;5.20;;;0.95;;
41633;SDS011;37274;51.150;4.808;2022-07-10T13:28:06;1.60;;;0.50;;
41633;SDS011;37274;51.150;4.808;2022-07-10T13:30:34;3.42;;;0.75;;
41633;SDS011;37274;51.150;4.808;2022-07-10T13:33:01;2.22;;;0.82;;
41633;SDS011;37274;51.150;4.808;2022-07-10T13:35:28;2.03;;;0.82;;
41633;SDS011;37274;51.150;4.808;2022-07-10T13:37:56;3.13;;;0.60;;
41633;SDS011;37274;51.150;4.808;2022-07-10T13:40:29;1.08;;;0.65;;
41633;SDS011;37274;51.150;4.808;2022-07-10T13:42:57;2.10;;;0.70;;
41633;SDS011;37274;51.150;4.808;2022-07-10T13:45:24;1.85;;;0.50;;
41633;SDS011;37274;51.150;4.808;2022-07-10T13:47:53;1.40;;;0.52;;
41633;SDS011;37274;51.150;4.808;2022-07-10T13:50:24;1.67;;;0.52;;
41633;SDS011;37274;51.150;4.808;2022-07-10T13:52:51;1.25;;;0.60;;
41633;SDS011;37274;51.150;4.808;2022-07-10T13:55:18;1.00;;;0.70;;
41633;SDS011;37274;51.150;4.808;2022-07-10T13:57:45;2.17;;;0.80;;
41633;SDS011;37274;51.150;4.808;2022-07-10T14:00:12;0.80;;;0.40;;
41633;SDS011;37274;51.150;4.808;2022-07-10T14:02:39;0.82;;;0.45;;
41633;SDS011;37274;51.150;4.808;2022-07-10T14:05:06;1.00;;;0.40;;
41633;SDS011;37274;51.150;4.808;2022-07-10T14:07:34;0.63;;;0.57;;
41633;SDS011;37274;51.150;4.808;2022-07-10T14:10:01;1.80;;;0.60;;
41633;SDS011;37274;51.150;4.808;2022-07-10T14:12:28;1.20;;;0.47;;
41633;SDS011;37274;51.150;4.808;2022-07-10T14:14:54;0.73;;;0.35;;
41633;SDS011;37274;51.150;4.808;2022-07-10T14:17:21;1.15;;;0.60;;
41633;SDS011;37274;51.150;4.808;2022-07-10T14:19:48;2.10;;;0.52;;
41633;SDS011;37274;51.150;4.808;2022-07-10T14:22:15;3.33;;;0.75;;
41633;SDS011;37274;51.150;4.808;2022-07-10T14:24:42;1.02;;;0.40;;
41633;SDS011;37274;51.150;4.808;2022-07-10T14:27:09;1.45;;;0.60;;
41633;SDS011;37274;51.150;4.808;2022-07-10T14:29:37;1.25;;;0.43;;
41633;SDS011;37274;51.150;4.808;2022-07-10T14:32:03;3.30;;;0.55;;
41633;SDS011;37274;51.150;4.808;2022-07-10T14:34:30;0.30;;;0.30;;
41633;SDS011;37274;51.150;4.808;2022-07-10T14:36:57;1.02;;;0.50;;
41633;SDS011;37274;51.150;4.808;2022-07-10T14:39:26;1.60;;;0.35;;
41633;SDS011;37274;51.150;4.808;2022-07-10T14:41:53;1.00;;;0.57;;
41633;SDS011;37274;51.150;4.808;2022-07-10T14:44:20;1.92;;;0.40;;
41633;SDS011;37274;51.150;4.808;2022-07-10T14:46:47;1.38;;;0.30;;
41633;SDS011;37274;51.150;4.808;2022-07-10T14:49:15;0.68;;;0.35;;
41633;SDS011;37274;51.150;4.808;2022-07-10T14:51:41;1.17;;;0.55;;
41633;SDS011;37274;51.150;4.808;2022-07-10T14:54:08;0.47;;;0.40;;
41633;SDS011;37274;51.150;4.808;2022-07-10T14:56:35;0.50;;;0.30;;
41633;SDS011;37274;51.150;4.808;2022-07-10T14:59:02;0.63;;;0.40;;
41633;SDS011;37274;51.150;4.808;2022-07-10T15:01:40;0.35;;;0.30;;
41633;SDS011;37274;51.150;4.808;2022-07-10T15:04:07;0.63;;;0.45;;
41633;SDS011;37274;51.150;4.808;2022-07-10T15:06:34;0.73;;;0.40;;
41633;SDS011;37274;51.150;4.808;2022-07-10T15:09:01;1.70;;;0.47;;
41633;SDS011;37274;51.150;4.808;2022-07-10T15:11:27;0.63;;;0.22;;
41633;SDS011;37274;51.150;4.808;2022-07-10T15:13:54;0.80;;;0.35;;
41633;SDS011;37274;51.150;4.808;2022-07-10T15:16:27;0.80;;;0.40;;
41633;SDS011;37274;51.150;4.808;2022-07-10T15:18:55;2.97;;;0.43;;
41633;SDS011;37274;51.150;4.808;2022-07-10T15:21:22;1.20;;;0.40;;
41633;SDS011;37274;51.150;4.808;2022-07-10T15:23:49;2.67;;;0.52;;
41633;SDS011;37274;51.150;4.808;2022-07-10T15:26:16;1.70;;;0.70;;
41633;SDS011;37274;51.150;4.808;2022-07-10T15:28:44;1.10;;;0.63;;
41633;SDS011;37274;51.150;4.808;2022-07-10T15:31:10;1.15;;;0.50;;
41633;SDS011;37274;51.150;4.808;2022-07-10T15:33:38;2.83;;;0.52;;
41633;SDS011;37274;51.150;4.808;2022-07-10T15:36:10;1.08;;;0.60;;
41633;SDS011;37274;51.150;4.808;2022-07-10T15:38:38;1.58;;;0.60;;
41633;SDS011;37274;51.150;4.808;2022-07-10T15:41:06;2.75;;;0.52;;
41633;SDS011;37274;51.150;4.808;2022-07-10T15:43:33;2.20;;;0.30;;
41633;SDS011;37274;51.150;4.808;2022-07-10T15:46:00;0.77;;;0.68;;
41633;SDS011;37274;51.150;4.808;2022-07-10T15:48:27;1.98;;;0.45;;
41633;SDS011;37274;51.150;4.808;2022-07-10T15:50:54;0.75;;;0.50;;
41633;SDS011;37274;51.150;4.808;2022-07-10T15:53:21;1.10;;;0.60;;
41633;SDS011;37274;51.150;4.808;2022-07-10T15:55:47;0.70;;;0.40;;